SWR5MP EGLL-LSZH
Flight info
| Callsign | SWR5MP |
|---|---|
| Flight time | N/A |
| Altitude | 29000 |
| Route | DET L6 DVR UL9 KONAN UL607 KOK M150 DIK N852 SUTAL DCT GTQ DCT BAMEV DCT BLM |
| Aircraft | A321/M-SDE2E3FGIJ1RWXY/LB1 |
Departure
| Time | 2026-05-05 13:05 |
|---|---|
| Airport | London Heathrow Airport (EGLL) |
Arrival
| Time | N/A |
|---|---|
| Airport | Zürich Airport (LSZH) |
| Time | Latitude | Longitude | Altitude | Speed | Heading |
|---|---|---|---|---|---|
| 2026-05-05 12:51 | 51.46824 | -0.45115 | 92 ft | 0 kts | 360° |
| 2026-05-05 12:56 | 51.46819 | -0.45115 | 92 ft | 4 kts | 359° |
| 2026-05-05 12:56 | 51.46792 | -0.45112 | 92 ft | 4 kts | 349° |
| 2026-05-05 12:56 | 51.46767 | -0.45099 | 92 ft | 4 kts | 328° |
| 2026-05-05 12:57 | 51.46751 | -0.45073 | 92 ft | 5 kts | 279° |
| 2026-05-05 12:57 | 51.46751 | -0.45063 | 92 ft | 0 kts | 269° |
| 2026-05-05 13:00 | 51.46743 | -0.45076 | 92 ft | 4 kts | 213° |
| 2026-05-05 13:01 | 51.46662 | -0.45297 | 92 ft | 15 kts | 270° |
| 2026-05-05 13:01 | 51.46661 | -0.45483 | 92 ft | 18 kts | 270° |
| 2026-05-05 13:01 | 51.46661 | -0.45695 | 92 ft | 20 kts | 270° |
| 2026-05-05 13:01 | 51.46661 | -0.45930 | 92 ft | 22 kts | 270° |
| 2026-05-05 13:02 | 51.46659 | -0.46188 | 94 ft | 24 kts | 269° |
| 2026-05-05 13:02 | 51.46658 | -0.46469 | 96 ft | 26 kts | 270° |
| 2026-05-05 13:02 | 51.46657 | -0.46772 | 92 ft | 28 kts | 270° |
| 2026-05-05 13:02 | 51.46656 | -0.47092 | 93 ft | 27 kts | 269° |
| 2026-05-05 13:03 | 51.46655 | -0.47342 | 92 ft | 21 kts | 269° |
| 2026-05-05 13:03 | 51.46654 | -0.47443 | 92 ft | 5 kts | 269° |
| 2026-05-05 13:03 | 51.46630 | -0.47490 | 95 ft | 8 kts | 195° |
| 2026-05-05 13:03 | 51.46569 | -0.47504 | 92 ft | 10 kts | 182° |
| 2026-05-05 13:04 | 51.46503 | -0.47504 | 91 ft | 6 kts | 165° |
| 2026-05-05 13:04 | 51.46481 | -0.47428 | 92 ft | 10 kts | 91° |
| 2026-05-05 13:04 | 51.46481 | -0.47415 | 91 ft | 0 kts | 89° |
| 2026-05-05 13:04 | 51.46483 | -0.47281 | 92 ft | 44 kts | 89° |
| 2026-05-05 13:05 | 51.46486 | -0.46378 | 96 ft | 115 kts | 90° |
| 2026-05-05 13:05 | 51.46489 | -0.44784 | 102 ft | 170 kts | 89° |
| 2026-05-05 13:05 | 51.46483 | -0.42862 | 738 ft | 169 kts | 89° |
| 2026-05-05 13:05 | 51.46447 | -0.40969 | 1469 ft | 172 kts | 98° |
| 2026-05-05 13:06 | 51.45928 | -0.39113 | 1727 ft | 194 kts | 119° |
| 2026-05-05 13:06 | 51.45207 | -0.37227 | 2142 ft | 202 kts | 120° |
| 2026-05-05 13:06 | 51.44414 | -0.35231 | 2507 ft | 223 kts | 120° |
| 2026-05-05 13:06 | 51.44145 | -0.34535 | 2620 ft | 231 kts | 119° |